createdAt,value
2023-01-17T04:00:33.396Z,7.50
2023-01-17T04:03:00.556Z,4.10
2023-01-17T04:05:27.700Z,4.10
2023-01-17T04:07:54.851Z,4.13
2023-01-17T04:10:22.031Z,4.37
2023-01-17T04:12:49.215Z,4.10
2023-01-17T04:15:16.472Z,4.10
2023-01-17T04:17:43.731Z,4.27
2023-01-17T04:20:21.555Z,4.17
2023-01-17T04:22:48.728Z,5.57
2023-01-17T04:25:16.121Z,3.97
2023-01-17T04:27:43.398Z,4.57
2023-01-17T04:30:11.296Z,4.20
2023-01-17T04:32:38.544Z,4.37
2023-01-17T04:35:07.154Z,4.10
2023-01-17T04:37:34.404Z,4.00
2023-01-17T04:40:01.623Z,4.30
2023-01-17T04:42:28.814Z,5.03
2023-01-17T04:44:55.969Z,4.90
2023-01-17T04:47:23.217Z,4.10
2023-01-17T04:49:50.541Z,5.00
2023-01-17T04:52:19.726Z,3.53
2023-01-17T04:54:49.490Z,4.33
2023-01-17T04:57:17.706Z,4.50
2023-01-17T04:59:45.652Z,4.03
2023-01-17T05:02:13.682Z,4.53
2023-01-17T05:04:40.903Z,4.47
2023-01-17T05:07:08.409Z,4.40
2023-01-17T05:09:35.559Z,4.53
2023-01-17T05:12:02.843Z,4.13
2023-01-17T05:14:30.219Z,4.30
2023-01-17T05:16:58.034Z,4.43
2023-01-17T05:19:26.791Z,4.33
2023-01-17T05:21:54.047Z,4.50
2023-01-17T05:24:21.530Z,4.27
2023-01-17T05:26:54.731Z,3.90
2023-01-17T05:29:22.346Z,4.60
2023-01-17T05:31:49.544Z,4.30
2023-01-17T05:34:17.371Z,4.30
2023-01-17T05:36:44.583Z,6.03
2023-01-17T05:39:11.740Z,4.30
2023-01-17T05:41:38.925Z,4.50
2023-01-17T05:44:06.176Z,4.30
2023-01-17T05:46:33.402Z,4.63
2023-01-17T05:49:00.641Z,4.60
2023-01-17T05:51:29.293Z,4.40
2023-01-17T05:53:56.441Z,4.20
2023-01-17T05:56:23.656Z,4.00
2023-01-17T05:58:50.907Z,4.80
2023-01-17T06:01:18.119Z,9.90
2023-01-17T06:03:45.344Z,6.80
2023-01-17T06:06:12.654Z,7.13
2023-01-17T06:08:39.876Z,7.43
2023-01-17T06:11:07.113Z,6.47
2023-01-17T06:13:34.479Z,7.70
2023-01-17T06:16:03.939Z,8.47
2023-01-17T06:18:32.054Z,8.80
2023-01-17T06:20:59.187Z,8.20
2023-01-17T06:23:26.508Z,8.40
2023-01-17T06:25:53.704Z,7.90
2023-01-17T06:28:22.738Z,7.30
2023-01-17T06:30:50.172Z,7.53
2023-01-17T06:33:17.545Z,6.27
2023-01-17T06:35:50.038Z,6.50
2023-01-17T06:38:17.491Z,6.33
2023-01-17T06:40:44.828Z,7.43
2023-01-17T06:43:11.987Z,6.67
2023-01-17T06:45:39.604Z,7.13
2023-01-17T06:48:07.260Z,6.70
2023-01-17T06:50:34.998Z,6.90
2023-01-17T06:53:04.956Z,6.37
2023-01-17T06:55:33.712Z,6.47
2023-01-17T06:58:02.689Z,7.43
2023-01-17T07:00:34.947Z,8.20
2023-01-17T07:03:02.526Z,8.30
2023-01-17T07:05:29.804Z,8.20
2023-01-17T07:07:57.824Z,10.13
2023-01-17T07:10:25.024Z,9.87
2023-01-17T07:12:57.475Z,9.70
2023-01-17T07:15:24.696Z,9.13
2023-01-17T07:17:51.899Z,9.17
2023-01-17T07:20:19.196Z,7.57
2023-01-17T07:22:46.415Z,8.60
2023-01-17T07:25:13.650Z,7.07
2023-01-17T07:27:40.793Z,6.83
2023-01-17T07:30:09.319Z,7.07
2023-01-17T07:32:37.236Z,7.37
2023-01-17T07:35:05.219Z,7.50
2023-01-17T07:37:32.516Z,7.47
2023-01-17T07:40:02.489Z,7.40
2023-01-17T07:42:29.730Z,6.97
2023-01-17T07:44:56.913Z,6.77
2023-01-17T07:47:24.851Z,6.23
2023-01-17T07:49:52.007Z,8.37
2023-01-17T07:52:19.192Z,9.07
2023-01-17T07:54:46.369Z,8.97
2023-01-17T07:57:13.549Z,9.80
2023-01-17T07:59:40.708Z,9.23
2023-01-17T08:02:18.161Z,8.70
2023-01-17T08:04:45.914Z,8.60
2023-01-17T08:07:14.037Z,8.40
2023-01-17T08:09:42.808Z,11.03
2023-01-17T08:12:10.374Z,10.20
2023-01-17T08:14:37.565Z,8.93
2023-01-17T08:17:13.188Z,8.60
2023-01-17T08:19:40.618Z,9.43
2023-01-17T08:22:08.365Z,8.40
2023-01-17T08:24:35.572Z,9.03
2023-01-17T08:27:02.811Z,7.47
2023-01-17T08:29:29.954Z,7.97
2023-01-17T08:31:57.266Z,7.17
2023-01-17T08:34:24.544Z,7.10
2023-01-17T08:36:53.845Z,7.17
2023-01-17T08:39:21.812Z,6.73
2023-01-17T08:41:49.010Z,6.60
2023-01-17T08:44:16.313Z,6.77
2023-01-17T08:46:44.285Z,6.63
2023-01-17T08:49:12.108Z,6.53
2023-01-17T08:51:40.055Z,7.10
2023-01-17T08:54:09.478Z,7.47
2023-01-17T08:56:36.759Z,6.83
2023-01-17T08:59:04.173Z,6.60
2023-01-17T09:01:40.558Z,7.97
2023-01-17T09:04:09.837Z,7.23
2023-01-17T09:06:39.356Z,7.53
2023-01-17T09:09:07.964Z,7.40
2023-01-17T09:11:35.306Z,7.67
2023-01-17T09:14:04.106Z,8.80
2023-01-17T09:16:34.749Z,7.40
2023-01-17T09:19:02.021Z,7.63
2023-01-17T09:21:29.246Z,7.33
2023-01-17T09:23:56.430Z,6.83
2023-01-17T09:26:26.426Z,7.13
2023-01-17T09:28:54.207Z,7.10
2023-01-17T09:31:22.942Z,6.90
2023-01-17T09:33:51.415Z,7.73
2023-01-17T09:36:19.196Z,8.10
2023-01-17T09:38:46.984Z,7.63
2023-01-17T09:41:43.154Z,7.73
2023-01-17T09:44:22.453Z,7.13
2023-01-17T09:46:52.204Z,8.73
2023-01-17T09:49:19.323Z,7.90
2023-01-17T09:51:46.658Z,8.60
2023-01-17T09:54:22.880Z,8.80
2023-01-17T09:57:02.859Z,9.33
2023-01-17T09:59:45.830Z,8.20
2023-01-17T10:02:43.895Z,14.40
2023-01-17T10:05:32.288Z,7.80
2023-01-17T10:08:08.131Z,7.63
2023-01-17T10:11:01.477Z,8.23
2023-01-17T10:14:00.726Z,6.70
2023-01-17T10:16:53.087Z,8.23
2023-01-17T10:19:51.607Z,7.60
2023-01-17T10:22:39.891Z,5.93
2023-01-17T10:25:16.251Z,5.20
2023-01-17T10:27:59.263Z,6.77
2023-01-17T10:30:34.853Z,7.27
2023-01-17T10:33:16.798Z,5.33
2023-01-17T10:36:15.341Z,7.13
2023-01-17T10:38:48.008Z,11.17
2023-01-17T10:41:18.134Z,12.67
2023-01-17T10:44:08.662Z,6.73
2023-01-17T10:46:45.078Z,5.10
2023-01-17T10:49:18.067Z,5.77
2023-01-17T10:51:50.461Z,5.00
2023-01-17T10:54:36.971Z,5.90
2023-01-17T10:57:04.343Z,4.87
2023-01-17T10:59:33.801Z,5.50
2023-01-17T11:02:08.920Z,4.80
2023-01-17T11:04:41.831Z,5.60
2023-01-17T11:07:21.078Z,4.57
2023-01-17T11:09:53.573Z,9.17
2023-01-17T11:12:27.230Z,7.50
2023-01-17T11:15:21.955Z,4.47
2023-01-17T11:18:05.884Z,3.73
2023-01-17T11:20:40.371Z,4.60
2023-01-17T11:23:16.575Z,4.43
2023-01-17T11:26:04.997Z,5.07
2023-01-17T11:28:35.325Z,4.83
2023-01-17T11:31:16.470Z,3.93
2023-01-17T11:33:53.752Z,4.87
2023-01-17T11:36:29.108Z,4.50
2023-01-17T11:39:03.460Z,4.70
2023-01-17T11:41:40.289Z,5.20
2023-01-17T11:44:29.320Z,5.40
2023-01-17T11:47:14.394Z,5.60
2023-01-17T11:49:44.259Z,7.33
2023-01-17T11:52:24.409Z,5.87
2023-01-17T11:54:54.578Z,4.50
2023-01-17T11:57:33.305Z,4.57
2023-01-17T12:00:05.583Z,4.67
2023-01-17T12:03:05.785Z,4.30
2023-01-17T12:05:56.600Z,4.40
2023-01-17T12:08:54.028Z,4.53
2023-01-17T12:12:13.492Z,4.80
2023-01-17T12:14:52.503Z,4.90
2023-01-17T12:17:43.698Z,7.53
2023-01-17T12:20:24.808Z,4.90
2023-01-17T12:23:06.187Z,5.17
2023-01-17T12:26:06.882Z,4.60
2023-01-17T12:28:39.599Z,4.50
2023-01-17T12:31:38.763Z,5.00
2023-01-17T12:34:35.664Z,5.30
2023-01-17T12:37:21.336Z,5.27
2023-01-17T12:40:19.119Z,5.47
2023-01-17T12:43:03.368Z,4.50
2023-01-17T12:45:43.654Z,5.00
2023-01-17T12:48:18.565Z,5.50
2023-01-17T12:51:27.728Z,4.70
2023-01-17T12:54:01.289Z,4.70
2023-01-17T12:56:52.524Z,4.90
2023-01-17T12:59:27.801Z,6.63
2023-01-17T13:01:59.553Z,5.97
2023-01-17T13:05:06.522Z,4.83
2023-01-17T13:07:47.194Z,5.93
2023-01-17T13:10:47.979Z,5.47
2023-01-17T13:13:26.668Z,5.60
2023-01-17T13:15:56.775Z,5.53
2023-01-17T13:18:29.895Z,4.97
2023-01-17T13:21:21.745Z,6.27
2023-01-17T13:24:04.018Z,5.97
2023-01-17T13:26:41.381Z,5.57
2023-01-17T13:29:40.411Z,5.90
2023-01-17T13:32:11.087Z,6.53
2023-01-17T13:34:50.848Z,4.87
2023-01-17T13:37:38.442Z,4.70
2023-01-17T13:40:29.467Z,5.23
2023-01-17T13:43:00.899Z,5.73
2023-01-17T13:45:29.739Z,4.90
2023-01-17T13:48:18.799Z,4.63
2023-01-17T13:50:55.427Z,5.07
2023-01-17T13:53:34.715Z,5.30
2023-01-17T13:56:13.279Z,5.47
2023-01-17T13:58:54.558Z,4.90
2023-01-17T14:01:24.599Z,6.37
2023-01-17T14:03:51.986Z,5.03
2023-01-17T14:06:44.165Z,3.80
2023-01-17T14:09:27.786Z,4.40
2023-01-17T14:12:05.194Z,7.60
2023-01-17T14:14:46.725Z,6.97
2023-01-17T14:17:16.716Z,5.40
2023-01-17T14:19:50.456Z,5.57
2023-01-17T14:22:31.946Z,7.73
2023-01-17T14:25:09.749Z,6.97
2023-01-17T14:27:46.351Z,5.07
2023-01-17T14:30:48.644Z,6.90
2023-01-17T14:33:30.860Z,4.97
2023-01-17T14:36:04.598Z,4.30
2023-01-17T14:38:33.576Z,4.87
2023-01-17T14:41:02.800Z,5.17
2023-01-17T14:43:33.012Z,4.67
2023-01-17T14:46:25.174Z,12.07
2023-01-17T14:49:00.928Z,6.50
2023-01-17T14:51:28.811Z,6.33
2023-01-17T14:54:00.013Z,5.53
2023-01-17T14:56:29.184Z,4.57
2023-01-17T14:59:17.437Z,4.87
2023-01-17T15:02:07.278Z,5.23
2023-01-17T15:04:39.336Z,4.27
2023-01-17T15:07:07.604Z,4.37
2023-01-17T15:09:37.208Z,5.03
2023-01-17T15:12:08.295Z,5.00
2023-01-17T15:14:39.671Z,4.77
2023-01-17T15:17:10.612Z,5.30
2023-01-17T15:19:43.112Z,4.77
2023-01-17T15:22:11.304Z,5.47
2023-01-17T15:24:42.199Z,5.50
2023-01-17T15:27:15.177Z,5.43
2023-01-17T15:29:44.559Z,5.97
2023-01-17T15:32:22.981Z,5.43
2023-01-17T15:34:51.477Z,5.90
2023-01-17T15:37:29.032Z,5.90
2023-01-17T15:40:26.037Z,6.33
2023-01-17T15:42:59.286Z,5.57
2023-01-17T15:45:32.098Z,5.83
2023-01-17T15:48:38.645Z,5.63
2023-01-17T15:51:06.312Z,5.70
2023-01-17T15:53:38.822Z,5.80
2023-01-17T15:56:32.577Z,5.30
2023-01-17T15:59:27.153Z,4.80
2023-01-17T16:01:56.488Z,5.30
2023-01-17T16:04:42.243Z,5.13
2023-01-17T16:07:21.274Z,6.07
2023-01-17T16:09:49.670Z,7.03
2023-01-17T16:12:16.851Z,5.30
2023-01-17T16:14:59.591Z,5.00
2023-01-17T16:17:32.657Z,6.43
2023-01-17T16:20:00.071Z,5.20
2023-01-17T16:22:27.427Z,5.67
2023-01-17T16:24:58.883Z,5.10
2023-01-17T16:27:26.050Z,5.73
2023-01-17T16:29:55.672Z,7.50
2023-01-17T16:32:23.570Z,7.83
2023-01-17T16:34:50.986Z,8.93
2023-01-17T16:37:21.265Z,8.53
2023-01-17T16:39:49.073Z,9.67
2023-01-17T16:42:16.585Z,13.63
2023-01-17T16:44:44.062Z,14.33
2023-01-17T16:47:11.320Z,10.63
2023-01-17T16:49:38.500Z,12.03
2023-01-17T16:52:05.660Z,11.47
2023-01-17T16:54:33.049Z,11.07
2023-01-17T16:57:00.256Z,9.67
2023-01-17T16:59:36.817Z,10.10
2023-01-17T17:02:15.150Z,8.93
2023-01-17T17:04:42.524Z,7.20
2023-01-17T17:07:09.757Z,9.60
2023-01-17T17:09:36.965Z,10.23
2023-01-17T17:12:05.072Z,10.93
2023-01-17T17:14:32.219Z,8.73
2023-01-17T17:17:02.293Z,7.37
2023-01-17T17:19:29.557Z,10.07
2023-01-17T17:22:01.501Z,7.90
2023-01-17T17:24:28.998Z,7.30
2023-01-17T17:26:56.245Z,6.67
2023-01-17T17:29:23.394Z,6.93
2023-01-17T17:31:50.553Z,7.63
2023-01-17T17:34:17.940Z,7.03
2023-01-17T17:36:45.370Z,7.43
2023-01-17T17:39:14.900Z,6.90
2023-01-17T17:41:43.739Z,7.00
2023-01-17T17:44:11.438Z,6.60
2023-01-17T17:46:39.061Z,6.93
2023-01-17T17:49:06.768Z,6.97
2023-01-17T17:51:35.941Z,7.90
2023-01-17T17:54:15.487Z,6.10
2023-01-17T17:56:46.510Z,6.80
2023-01-17T17:59:18.168Z,7.23
2023-01-17T18:01:46.379Z,7.17
2023-01-17T18:04:14.226Z,6.63
2023-01-17T18:06:41.938Z,7.70
2023-01-17T18:09:10.874Z,7.07
2023-01-17T18:11:39.904Z,7.80
2023-01-17T18:14:09.551Z,7.73
2023-01-17T18:16:41.461Z,8.30
2023-01-17T18:19:13.466Z,7.47
2023-01-17T18:21:40.786Z,8.40
2023-01-17T18:24:10.647Z,8.17
2023-01-17T18:26:43.351Z,7.87
2023-01-17T18:29:14.745Z,7.50
2023-01-17T18:31:43.631Z,7.40
2023-01-17T18:34:16.527Z,7.47
2023-01-17T18:36:44.429Z,6.87
2023-01-17T18:39:14.768Z,6.70
2023-01-17T18:41:42.691Z,9.53
2023-01-17T18:44:10.387Z,8.10
2023-01-17T18:46:40.178Z,6.63
2023-01-17T18:49:09.901Z,7.03
2023-01-17T18:51:37.281Z,7.10
2023-01-17T18:54:07.111Z,6.60
2023-01-17T18:56:35.353Z,6.80
2023-01-17T18:59:06.116Z,6.73
2023-01-17T19:01:35.880Z,8.53
2023-01-17T19:04:05.143Z,8.67
2023-01-17T19:06:41.255Z,9.50
2023-01-17T19:09:10.200Z,9.90
2023-01-17T19:11:37.993Z,10.00
2023-01-17T19:14:06.523Z,9.00
2023-01-17T19:16:36.855Z,9.33
2023-01-17T19:19:07.532Z,8.73
2023-01-17T19:21:35.209Z,7.97
2023-01-17T19:24:02.492Z,8.70
2023-01-17T19:26:29.995Z,7.27
2023-01-17T19:28:58.910Z,7.80
2023-01-17T19:31:30.958Z,8.30
2023-01-17T19:33:59.491Z,8.70
2023-01-17T19:36:31.012Z,10.17
2023-01-17T19:39:04.979Z,8.70
2023-01-17T19:41:34.559Z,8.73
2023-01-17T19:44:04.756Z,8.87
2023-01-17T19:46:36.015Z,9.00
2023-01-17T19:49:04.857Z,17.87
2023-01-17T19:51:32.162Z,15.23
2023-01-17T19:54:01.297Z,12.53
2023-01-17T19:56:30.038Z,15.27
2023-01-17T19:59:00.987Z,13.17
2023-01-17T20:01:30.585Z,12.07
2023-01-17T20:03:59.419Z,12.60
2023-01-17T20:06:29.205Z,15.63
2023-01-17T20:08:57.108Z,19.00
2023-01-17T20:11:25.482Z,13.30
2023-01-17T20:13:57.833Z,14.00
2023-01-17T20:16:27.535Z,13.93
2023-01-17T20:18:54.995Z,9.17
2023-01-17T20:21:24.719Z,8.63
2023-01-17T20:23:53.092Z,8.07
2023-01-17T20:26:29.622Z,8.77
2023-01-17T20:28:57.297Z,9.17
2023-01-17T20:31:25.614Z,10.73
2023-01-17T20:33:55.180Z,10.97
2023-01-17T20:36:25.329Z,10.10
2023-01-17T20:38:53.264Z,10.63
2023-01-17T20:41:30.582Z,10.43
2023-01-17T20:43:59.660Z,8.07
2023-01-17T20:46:29.380Z,7.50
2023-01-17T20:48:57.983Z,7.47
2023-01-17T20:51:28.692Z,7.30
2023-01-17T20:53:58.272Z,7.30
2023-01-17T20:56:25.679Z,7.27
2023-01-17T20:58:54.165Z,7.13
2023-01-17T21:01:22.694Z,7.33
2023-01-17T21:03:53.163Z,6.80
2023-01-17T21:06:21.654Z,6.37
2023-01-17T21:08:49.505Z,7.07
2023-01-17T21:11:22.487Z,7.73
2023-01-17T21:13:49.921Z,7.13
2023-01-17T21:16:20.255Z,9.50
2023-01-17T21:18:48.611Z,9.47
2023-01-17T21:21:24.509Z,8.40
2023-01-17T21:23:53.920Z,7.93
2023-01-17T21:26:22.774Z,8.23
2023-01-17T21:28:50.850Z,8.83
2023-01-17T21:31:26.647Z,8.33
2023-01-17T21:34:04.995Z,8.03
2023-01-17T21:36:34.796Z,6.50
2023-01-17T21:39:05.176Z,6.10
2023-01-17T21:41:35.107Z,6.47
2023-01-17T21:44:05.355Z,5.83
2023-01-17T21:46:35.433Z,5.37
2023-01-17T21:49:03.065Z,5.60
2023-01-17T21:51:49.154Z,5.27
2023-01-17T21:54:16.829Z,5.00
2023-01-17T21:57:02.509Z,5.20
2023-01-17T21:59:32.466Z,5.33
